sensor_id;sensor_type;location;lat;lon;timestamp;P1;durP1;ratioP1;P2;durP2;ratioP2
6850;SDS011;3464;42.728;23.296;2023-06-26T00:01:45;32.83;;;22.60;;
6850;SDS011;3464;42.728;23.296;2023-06-26T00:04:12;29.10;;;20.37;;
6850;SDS011;3464;42.728;23.296;2023-06-26T00:06:39;33.27;;;20.83;;
6850;SDS011;3464;42.728;23.296;2023-06-26T00:09:05;35.93;;;21.40;;
6850;SDS011;3464;42.728;23.296;2023-06-26T00:11:32;31.57;;;20.80;;
6850;SDS011;3464;42.728;23.296;2023-06-26T00:13:59;29.00;;;20.33;;
6850;SDS011;3464;42.728;23.296;2023-06-26T00:16:26;33.77;;;21.10;;
6850;SDS011;3464;42.728;23.296;2023-06-26T00:18:52;30.30;;;19.33;;
6850;SDS011;3464;42.728;23.296;2023-06-26T00:21:19;31.63;;;20.03;;
6850;SDS011;3464;42.728;23.296;2023-06-26T00:23:46;27.23;;;17.97;;
6850;SDS011;3464;42.728;23.296;2023-06-26T00:26:12;28.90;;;19.50;;
6850;SDS011;3464;42.728;23.296;2023-06-26T00:28:39;30.97;;;19.27;;
6850;SDS011;3464;42.728;23.296;2023-06-26T00:31:06;30.97;;;19.70;;
6850;SDS011;3464;42.728;23.296;2023-06-26T00:33:32;25.87;;;18.20;;
6850;SDS011;3464;42.728;23.296;2023-06-26T00:35:59;31.50;;;18.83;;
6850;SDS011;3464;42.728;23.296;2023-06-26T00:38:25;28.73;;;17.87;;
6850;SDS011;3464;42.728;23.296;2023-06-26T00:40:52;28.30;;;18.30;;
6850;SDS011;3464;42.728;23.296;2023-06-26T00:43:19;27.40;;;17.57;;
6850;SDS011;3464;42.728;23.296;2023-06-26T00:45:45;26.17;;;16.70;;
6850;SDS011;3464;42.728;23.296;2023-06-26T00:48:12;38.23;;;17.57;;
6850;SDS011;3464;42.728;23.296;2023-06-26T00:50:39;28.77;;;17.20;;
6850;SDS011;3464;42.728;23.296;2023-06-26T00:53:05;24.43;;;16.00;;
6850;SDS011;3464;42.728;23.296;2023-06-26T00:55:32;25.03;;;15.73;;
6850;SDS011;3464;42.728;23.296;2023-06-26T00:57:58;27.50;;;16.00;;
6850;SDS011;3464;42.728;23.296;2023-06-26T01:00:25;25.77;;;15.90;;
6850;SDS011;3464;42.728;23.296;2023-06-26T01:02:52;25.10;;;16.60;;
6850;SDS011;3464;42.728;23.296;2023-06-26T01:05:19;24.40;;;15.30;;
6850;SDS011;3464;42.728;23.296;2023-06-26T01:07:45;24.93;;;16.00;;
6850;SDS011;3464;42.728;23.296;2023-06-26T01:10:13;23.87;;;15.83;;
6850;SDS011;3464;42.728;23.296;2023-06-26T01:12:39;28.80;;;17.43;;
6850;SDS011;3464;42.728;23.296;2023-06-26T01:15:06;27.30;;;16.63;;
6850;SDS011;3464;42.728;23.296;2023-06-26T01:17:33;23.77;;;17.00;;
6850;SDS011;3464;42.728;23.296;2023-06-26T01:20:03;24.50;;;16.27;;
6850;SDS011;3464;42.728;23.296;2023-06-26T01:22:38;27.33;;;16.47;;
6850;SDS011;3464;42.728;23.296;2023-06-26T01:25:17;26.47;;;17.03;;
6850;SDS011;3464;42.728;23.296;2023-06-26T01:27:56;25.50;;;16.60;;
6850;SDS011;3464;42.728;23.296;2023-06-26T01:30:23;27.37;;;16.87;;
6850;SDS011;3464;42.728;23.296;2023-06-26T01:32:50;24.50;;;16.83;;
6850;SDS011;3464;42.728;23.296;2023-06-26T01:35:16;24.53;;;17.00;;
6850;SDS011;3464;42.728;23.296;2023-06-26T01:37:43;30.57;;;17.50;;
6850;SDS011;3464;42.728;23.296;2023-06-26T01:40:10;29.97;;;19.40;;
6850;SDS011;3464;42.728;23.296;2023-06-26T01:42:37;27.00;;;17.90;;
6850;SDS011;3464;42.728;23.296;2023-06-26T01:45:10;25.67;;;17.43;;
6850;SDS011;3464;42.728;23.296;2023-06-26T01:47:36;29.00;;;18.70;;
6850;SDS011;3464;42.728;23.296;2023-06-26T01:50:06;26.63;;;18.27;;
6850;SDS011;3464;42.728;23.296;2023-06-26T01:57:42;27.20;;;18.57;;
6850;SDS011;3464;42.728;23.296;2023-06-26T02:00:09;29.17;;;18.37;;
6850;SDS011;3464;42.728;23.296;2023-06-26T02:02:37;31.20;;;18.93;;
6850;SDS011;3464;42.728;23.296;2023-06-26T02:05:03;28.70;;;19.50;;
6850;SDS011;3464;42.728;23.296;2023-06-26T02:07:30;30.73;;;18.10;;
6850;SDS011;3464;42.728;23.296;2023-06-26T02:09:56;35.73;;;19.27;;
6850;SDS011;3464;42.728;23.296;2023-06-26T02:12:23;28.60;;;18.40;;
6850;SDS011;3464;42.728;23.296;2023-06-26T02:14:49;28.43;;;19.17;;
6850;SDS011;3464;42.728;23.296;2023-06-26T02:17:17;26.80;;;18.37;;
6850;SDS011;3464;42.728;23.296;2023-06-26T02:19:44;29.97;;;19.57;;
6850;SDS011;3464;42.728;23.296;2023-06-26T02:22:11;27.60;;;18.97;;
6850;SDS011;3464;42.728;23.296;2023-06-26T02:24:38;29.33;;;19.90;;
6850;SDS011;3464;42.728;23.296;2023-06-26T02:27:04;30.27;;;20.43;;
6850;SDS011;3464;42.728;23.296;2023-06-26T02:29:32;26.33;;;19.43;;
6850;SDS011;3464;42.728;23.296;2023-06-26T02:31:58;31.03;;;20.53;;
6850;SDS011;3464;42.728;23.296;2023-06-26T02:34:25;31.70;;;20.40;;
6850;SDS011;3464;42.728;23.296;2023-06-26T02:36:51;29.53;;;21.00;;
6850;SDS011;3464;42.728;23.296;2023-06-26T02:39:20;30.73;;;21.40;;
6850;SDS011;3464;42.728;23.296;2023-06-26T02:41:47;29.80;;;22.17;;
6850;SDS011;3464;42.728;23.296;2023-06-26T02:44:13;33.90;;;22.17;;
6850;SDS011;3464;42.728;23.296;2023-06-26T02:46:40;31.07;;;22.70;;
6850;SDS011;3464;42.728;23.296;2023-06-26T02:49:07;31.37;;;23.23;;
6850;SDS011;3464;42.728;23.296;2023-06-26T02:51:33;31.87;;;23.40;;
6850;SDS011;3464;42.728;23.296;2023-06-26T02:54:00;37.40;;;25.00;;
6850;SDS011;3464;42.728;23.296;2023-06-26T02:56:26;32.47;;;23.23;;
6850;SDS011;3464;42.728;23.296;2023-06-26T02:58:54;35.60;;;24.27;;
6850;SDS011;3464;42.728;23.296;2023-06-26T03:01:20;36.30;;;24.47;;
6850;SDS011;3464;42.728;23.296;2023-06-26T03:03:47;31.27;;;24.07;;
6850;SDS011;3464;42.728;23.296;2023-06-26T03:06:14;37.23;;;25.57;;
6850;SDS011;3464;42.728;23.296;2023-06-26T03:08:40;37.07;;;26.00;;
6850;SDS011;3464;42.728;23.296;2023-06-26T03:11:07;36.63;;;25.50;;
6850;SDS011;3464;42.728;23.296;2023-06-26T03:13:34;38.13;;;24.90;;
6850;SDS011;3464;42.728;23.296;2023-06-26T03:16:01;36.70;;;25.37;;
6850;SDS011;3464;42.728;23.296;2023-06-26T03:18:28;34.87;;;25.87;;
6850;SDS011;3464;42.728;23.296;2023-06-26T03:20:55;34.70;;;25.10;;
6850;SDS011;3464;42.728;23.296;2023-06-26T03:23:23;33.70;;;25.20;;
6850;SDS011;3464;42.728;23.296;2023-06-26T03:25:49;35.97;;;25.57;;
6850;SDS011;3464;42.728;23.296;2023-06-26T03:28:16;34.13;;;24.17;;
6850;SDS011;3464;42.728;23.296;2023-06-26T03:30:42;30.90;;;23.83;;
6850;SDS011;3464;42.728;23.296;2023-06-26T03:33:09;39.73;;;24.73;;
6850;SDS011;3464;42.728;23.296;2023-06-26T03:35:35;34.97;;;24.27;;
6850;SDS011;3464;42.728;23.296;2023-06-26T03:38:03;31.10;;;23.67;;
6850;SDS011;3464;42.728;23.296;2023-06-26T03:40:28;37.57;;;25.93;;
6850;SDS011;3464;42.728;23.296;2023-06-26T03:42:55;32.97;;;24.67;;
6850;SDS011;3464;42.728;23.296;2023-06-26T03:45:22;34.40;;;25.40;;
6850;SDS011;3464;42.728;23.296;2023-06-26T03:47:49;30.50;;;23.47;;
6850;SDS011;3464;42.728;23.296;2023-06-26T03:50:16;32.30;;;24.20;;
6850;SDS011;3464;42.728;23.296;2023-06-26T03:52:43;31.90;;;23.60;;
6850;SDS011;3464;42.728;23.296;2023-06-26T03:55:09;30.63;;;23.10;;
6850;SDS011;3464;42.728;23.296;2023-06-26T03:57:36;28.50;;;20.70;;
6850;SDS011;3464;42.728;23.296;2023-06-26T04:00:03;29.10;;;19.50;;
6850;SDS011;3464;42.728;23.296;2023-06-26T04:02:31;27.23;;;17.90;;
6850;SDS011;3464;42.728;23.296;2023-06-26T04:04:58;23.80;;;17.20;;
6850;SDS011;3464;42.728;23.296;2023-06-26T04:07:25;27.13;;;17.37;;
6850;SDS011;3464;42.728;23.296;2023-06-26T04:09:51;26.57;;;16.57;;
6850;SDS011;3464;42.728;23.296;2023-06-26T04:12:18;23.23;;;15.43;;
6850;SDS011;3464;42.728;23.296;2023-06-26T04:14:44;27.37;;;15.03;;
6850;SDS011;3464;42.728;23.296;2023-06-26T04:17:11;22.90;;;16.00;;
6850;SDS011;3464;42.728;23.296;2023-06-26T04:19:38;25.10;;;15.63;;
6850;SDS011;3464;42.728;23.296;2023-06-26T04:22:04;24.50;;;15.60;;
6850;SDS011;3464;42.728;23.296;2023-06-26T04:24:31;23.50;;;14.67;;
6850;SDS011;3464;42.728;23.296;2023-06-26T04:26:57;23.10;;;14.60;;
6850;SDS011;3464;42.728;23.296;2023-06-26T04:29:25;28.07;;;15.30;;
6850;SDS011;3464;42.728;23.296;2023-06-26T04:31:52;20.27;;;14.23;;
6850;SDS011;3464;42.728;23.296;2023-06-26T04:34:18;21.53;;;14.90;;
6850;SDS011;3464;42.728;23.296;2023-06-26T04:36:45;27.03;;;14.00;;
6850;SDS011;3464;42.728;23.296;2023-06-26T04:39:11;20.80;;;14.80;;
6850;SDS011;3464;42.728;23.296;2023-06-26T04:41:38;21.90;;;14.87;;
6850;SDS011;3464;42.728;23.296;2023-06-26T04:44:05;21.70;;;13.20;;
6850;SDS011;3464;42.728;23.296;2023-06-26T04:46:31;21.60;;;13.57;;
6850;SDS011;3464;42.728;23.296;2023-06-26T04:48:58;21.23;;;13.23;;
6850;SDS011;3464;42.728;23.296;2023-06-26T04:51:25;19.73;;;11.83;;
6850;SDS011;3464;42.728;23.296;2023-06-26T04:53:52;25.23;;;12.40;;
6850;SDS011;3464;42.728;23.296;2023-06-26T04:56:18;18.10;;;12.40;;
6850;SDS011;3464;42.728;23.296;2023-06-26T04:58:45;22.00;;;12.40;;
6850;SDS011;3464;42.728;23.296;2023-06-26T05:01:11;19.90;;;12.53;;
6850;SDS011;3464;42.728;23.296;2023-06-26T05:03:38;18.60;;;11.50;;
6850;SDS011;3464;42.728;23.296;2023-06-26T05:06:05;20.70;;;12.07;;
6850;SDS011;3464;42.728;23.296;2023-06-26T05:08:31;20.17;;;11.63;;
6850;SDS011;3464;42.728;23.296;2023-06-26T05:10:58;17.60;;;10.40;;
6850;SDS011;3464;42.728;23.296;2023-06-26T05:13:25;20.60;;;10.60;;
6850;SDS011;3464;42.728;23.296;2023-06-26T05:15:52;17.20;;;10.50;;
6850;SDS011;3464;42.728;23.296;2023-06-26T05:18:18;20.20;;;10.20;;
6850;SDS011;3464;42.728;23.296;2023-06-26T05:20:45;20.27;;;10.23;;
6850;SDS011;3464;42.728;23.296;2023-06-26T05:23:12;19.20;;;11.00;;
6850;SDS011;3464;42.728;23.296;2023-06-26T05:25:41;19.00;;;11.10;;
6850;SDS011;3464;42.728;23.296;2023-06-26T05:28:08;17.20;;;11.37;;
6850;SDS011;3464;42.728;23.296;2023-06-26T05:30:35;18.70;;;10.70;;
6850;SDS011;3464;42.728;23.296;2023-06-26T05:33:03;17.57;;;11.07;;
6850;SDS011;3464;42.728;23.296;2023-06-26T05:35:30;18.27;;;11.60;;
6850;SDS011;3464;42.728;23.296;2023-06-26T05:37:57;25.07;;;13.40;;
6850;SDS011;3464;42.728;23.296;2023-06-26T05:40:24;20.40;;;13.40;;
6850;SDS011;3464;42.728;23.296;2023-06-26T05:42:50;26.80;;;14.20;;
6850;SDS011;3464;42.728;23.296;2023-06-26T05:45:17;21.23;;;12.70;;
6850;SDS011;3464;42.728;23.296;2023-06-26T05:47:44;20.97;;;13.30;;
6850;SDS011;3464;42.728;23.296;2023-06-26T05:50:11;24.73;;;13.27;;
6850;SDS011;3464;42.728;23.296;2023-06-26T05:52:39;21.03;;;13.30;;
6850;SDS011;3464;42.728;23.296;2023-06-26T05:55:06;19.63;;;12.03;;
6850;SDS011;3464;42.728;23.296;2023-06-26T05:57:33;17.20;;;11.67;;
6850;SDS011;3464;42.728;23.296;2023-06-26T06:00:00;19.90;;;12.50;;
6850;SDS011;3464;42.728;23.296;2023-06-26T06:02:27;18.27;;;12.13;;
6850;SDS011;3464;42.728;23.296;2023-06-26T06:04:54;21.10;;;12.80;;
6850;SDS011;3464;42.728;23.296;2023-06-26T06:07:21;19.33;;;12.13;;
6850;SDS011;3464;42.728;23.296;2023-06-26T06:09:47;20.30;;;11.90;;
6850;SDS011;3464;42.728;23.296;2023-06-26T06:12:14;17.03;;;9.47;;
6850;SDS011;3464;42.728;23.296;2023-06-26T06:14:40;18.47;;;9.40;;
6850;SDS011;3464;42.728;23.296;2023-06-26T06:17:07;16.47;;;9.37;;
6850;SDS011;3464;42.728;23.296;2023-06-26T06:19:34;15.97;;;8.90;;
6850;SDS011;3464;42.728;23.296;2023-06-26T06:22:00;16.43;;;8.80;;
6850;SDS011;3464;42.728;23.296;2023-06-26T06:24:27;21.00;;;10.17;;
6850;SDS011;3464;42.728;23.296;2023-06-26T06:26:54;19.43;;;10.07;;
6850;SDS011;3464;42.728;23.296;2023-06-26T06:29:20;16.70;;;9.47;;
6850;SDS011;3464;42.728;23.296;2023-06-26T06:31:47;18.67;;;9.60;;
6850;SDS011;3464;42.728;23.296;2023-06-26T06:34:13;17.80;;;10.10;;
6850;SDS011;3464;42.728;23.296;2023-06-26T06:36:40;16.37;;;8.90;;
6850;SDS011;3464;42.728;23.296;2023-06-26T06:39:06;18.60;;;9.20;;
6850;SDS011;3464;42.728;23.296;2023-06-26T06:41:33;21.10;;;8.90;;
6850;SDS011;3464;42.728;23.296;2023-06-26T06:44:01;15.73;;;8.33;;
6850;SDS011;3464;42.728;23.296;2023-06-26T06:46:27;15.50;;;7.80;;
6850;SDS011;3464;42.728;23.296;2023-06-26T06:48:54;20.30;;;7.73;;
6850;SDS011;3464;42.728;23.296;2023-06-26T06:51:22;13.53;;;6.70;;
6850;SDS011;3464;42.728;23.296;2023-06-26T06:53:49;13.80;;;6.57;;
6850;SDS011;3464;42.728;23.296;2023-06-26T06:56:15;16.60;;;7.30;;
6850;SDS011;3464;42.728;23.296;2023-06-26T06:58:42;14.20;;;6.83;;
6850;SDS011;3464;42.728;23.296;2023-06-26T07:01:09;17.97;;;7.33;;
6850;SDS011;3464;42.728;23.296;2023-06-26T07:03:35;14.90;;;7.20;;
6850;SDS011;3464;42.728;23.296;2023-06-26T07:06:02;12.30;;;6.40;;
6850;SDS011;3464;42.728;23.296;2023-06-26T07:08:29;12.80;;;6.60;;
6850;SDS011;3464;42.728;23.296;2023-06-26T07:10:55;16.17;;;6.67;;
6850;SDS011;3464;42.728;23.296;2023-06-26T07:13:23;12.30;;;6.00;;
6850;SDS011;3464;42.728;23.296;2023-06-26T07:15:49;12.40;;;6.20;;
6850;SDS011;3464;42.728;23.296;2023-06-26T07:18:16;15.43;;;6.00;;
6850;SDS011;3464;42.728;23.296;2023-06-26T07:20:42;13.10;;;5.87;;
6850;SDS011;3464;42.728;23.296;2023-06-26T07:23:09;11.80;;;6.13;;
6850;SDS011;3464;42.728;23.296;2023-06-26T07:25:35;11.70;;;5.70;;
6850;SDS011;3464;42.728;23.296;2023-06-26T07:28:03;12.57;;;5.20;;
6850;SDS011;3464;42.728;23.296;2023-06-26T07:30:29;11.53;;;5.17;;
6850;SDS011;3464;42.728;23.296;2023-06-26T07:32:56;11.63;;;5.37;;
6850;SDS011;3464;42.728;23.296;2023-06-26T07:35:23;12.03;;;5.40;;
6850;SDS011;3464;42.728;23.296;2023-06-26T07:37:49;12.10;;;5.00;;
6850;SDS011;3464;42.728;23.296;2023-06-26T07:40:16;13.73;;;5.43;;
6850;SDS011;3464;42.728;23.296;2023-06-26T07:42:43;18.53;;;5.50;;
6850;SDS011;3464;42.728;23.296;2023-06-26T07:45:10;12.93;;;5.80;;
6850;SDS011;3464;42.728;23.296;2023-06-26T07:47:37;13.30;;;5.70;;
6850;SDS011;3464;42.728;23.296;2023-06-26T07:50:04;12.00;;;4.90;;
6850;SDS011;3464;42.728;23.296;2023-06-26T07:52:30;12.40;;;5.80;;
6850;SDS011;3464;42.728;23.296;2023-06-26T07:54:57;11.77;;;5.27;;
6850;SDS011;3464;42.728;23.296;2023-06-26T07:57:23;18.80;;;5.70;;
6850;SDS011;3464;42.728;23.296;2023-06-26T07:59:50;15.03;;;5.63;;
6850;SDS011;3464;42.728;23.296;2023-06-26T08:02:17;13.00;;;5.70;;
6850;SDS011;3464;42.728;23.296;2023-06-26T08:04:43;12.10;;;6.37;;
6850;SDS011;3464;42.728;23.296;2023-06-26T08:07:10;16.47;;;5.77;;
6850;SDS011;3464;42.728;23.296;2023-06-26T08:09:36;16.93;;;5.70;;
6850;SDS011;3464;42.728;23.296;2023-06-26T08:12:03;12.40;;;5.60;;
6850;SDS011;3464;42.728;23.296;2023-06-26T08:14:30;15.97;;;6.47;;
6850;SDS011;3464;42.728;23.296;2023-06-26T08:16:56;13.23;;;6.50;;
6850;SDS011;3464;42.728;23.296;2023-06-26T08:19:23;14.30;;;6.50;;
6850;SDS011;3464;42.728;23.296;2023-06-26T08:21:49;15.37;;;6.17;;
6850;SDS011;3464;42.728;23.296;2023-06-26T08:24:17;15.83;;;6.00;;
6850;SDS011;3464;42.728;23.296;2023-06-26T08:26:44;12.33;;;6.10;;
6850;SDS011;3464;42.728;23.296;2023-06-26T08:29:10;13.30;;;5.80;;
6850;SDS011;3464;42.728;23.296;2023-06-26T08:31:37;15.40;;;6.10;;
6850;SDS011;3464;42.728;23.296;2023-06-26T08:34:04;13.50;;;6.20;;
6850;SDS011;3464;42.728;23.296;2023-06-26T08:36:31;12.23;;;5.70;;
6850;SDS011;3464;42.728;23.296;2023-06-26T08:38:58;14.00;;;6.47;;
6850;SDS011;3464;42.728;23.296;2023-06-26T08:41:25;13.80;;;6.10;;
6850;SDS011;3464;42.728;23.296;2023-06-26T08:43:52;16.53;;;6.80;;
6850;SDS011;3464;42.728;23.296;2023-06-26T08:46:22;15.40;;;6.70;;
6850;SDS011;3464;42.728;23.296;2023-06-26T08:48:51;16.13;;;6.70;;
6850;SDS011;3464;42.728;23.296;2023-06-26T08:51:16;12.77;;;6.00;;
6850;SDS011;3464;42.728;23.296;2023-06-26T08:53:47;13.80;;;6.00;;
6850;SDS011;3464;42.728;23.296;2023-06-26T08:56:22;13.27;;;6.20;;
6850;SDS011;3464;42.728;23.296;2023-06-26T08:58:48;15.13;;;5.53;;
6850;SDS011;3464;42.728;23.296;2023-06-26T09:01:15;14.47;;;5.60;;
6850;SDS011;3464;42.728;23.296;2023-06-26T09:03:42;12.43;;;6.07;;
6850;SDS011;3464;42.728;23.296;2023-06-26T09:06:09;13.17;;;6.07;;
6850;SDS011;3464;42.728;23.296;2023-06-26T09:08:35;17.20;;;6.07;;
6850;SDS011;3464;42.728;23.296;2023-06-26T09:11:02;14.40;;;6.10;;
6850;SDS011;3464;42.728;23.296;2023-06-26T09:13:29;12.93;;;6.00;;
6850;SDS011;3464;42.728;23.296;2023-06-26T09:15:55;13.33;;;5.63;;
6850;SDS011;3464;42.728;23.296;2023-06-26T09:18:22;13.63;;;5.97;;
6850;SDS011;3464;42.728;23.296;2023-06-26T09:20:49;12.67;;;5.50;;
6850;SDS011;3464;42.728;23.296;2023-06-26T09:23:15;12.17;;;5.63;;
6850;SDS011;3464;42.728;23.296;2023-06-26T09:25:42;13.93;;;5.70;;
6850;SDS011;3464;42.728;23.296;2023-06-26T09:28:10;12.60;;;6.00;;
6850;SDS011;3464;42.728;23.296;2023-06-26T09:30:36;14.73;;;5.97;;
6850;SDS011;3464;42.728;23.296;2023-06-26T09:33:19;13.50;;;5.40;;
6850;SDS011;3464;42.728;23.296;2023-06-26T09:35:46;15.30;;;5.87;;
6850;SDS011;3464;42.728;23.296;2023-06-26T09:38:13;14.80;;;5.93;;
6850;SDS011;3464;42.728;23.296;2023-06-26T09:40:39;13.17;;;6.00;;
6850;SDS011;3464;42.728;23.296;2023-06-26T09:43:07;16.03;;;6.20;;
6850;SDS011;3464;42.728;23.296;2023-06-26T09:45:34;16.00;;;5.17;;
6850;SDS011;3464;42.728;23.296;2023-06-26T09:48:03;14.60;;;5.20;;
6850;SDS011;3464;42.728;23.296;2023-06-26T09:50:29;13.87;;;5.27;;
6850;SDS011;3464;42.728;23.296;2023-06-26T09:52:56;13.40;;;5.43;;
6850;SDS011;3464;42.728;23.296;2023-06-26T09:55:23;12.83;;;6.07;;
6850;SDS011;3464;42.728;23.296;2023-06-26T09:57:50;15.13;;;5.93;;
6850;SDS011;3464;42.728;23.296;2023-06-26T10:00:17;15.63;;;6.87;;
6850;SDS011;3464;42.728;23.296;2023-06-26T10:02:44;14.77;;;6.40;;
6850;SDS011;3464;42.728;23.296;2023-06-26T10:05:11;13.33;;;6.20;;
6850;SDS011;3464;42.728;23.296;2023-06-26T10:07:38;15.40;;;6.77;;
6850;SDS011;3464;42.728;23.296;2023-06-26T10:10:04;13.50;;;6.30;;
6850;SDS011;3464;42.728;23.296;2023-06-26T10:12:32;17.90;;;6.53;;
6850;SDS011;3464;42.728;23.296;2023-06-26T10:14:58;15.60;;;6.37;;
6850;SDS011;3464;42.728;23.296;2023-06-26T10:17:27;14.30;;;6.50;;
6850;SDS011;3464;42.728;23.296;2023-06-26T10:19:54;15.57;;;6.23;;
6850;SDS011;3464;42.728;23.296;2023-06-26T10:22:21;12.73;;;5.70;;
6850;SDS011;3464;42.728;23.296;2023-06-26T10:24:48;14.83;;;6.50;;
6850;SDS011;3464;42.728;23.296;2023-06-26T10:27:19;13.60;;;6.60;;
6850;SDS011;3464;42.728;23.296;2023-06-26T10:29:46;14.70;;;6.77;;
6850;SDS011;3464;42.728;23.296;2023-06-26T10:32:16;13.43;;;6.43;;
6850;SDS011;3464;42.728;23.296;2023-06-26T10:34:43;13.20;;;6.00;;
6850;SDS011;3464;42.728;23.296;2023-06-26T10:37:10;16.97;;;5.67;;
6850;SDS011;3464;42.728;23.296;2023-06-26T10:42:12;13.93;;;6.00;;
6850;SDS011;3464;42.728;23.296;2023-06-26T10:44:41;14.83;;;7.40;;
6850;SDS011;3464;42.728;23.296;2023-06-26T10:47:08;13.33;;;6.60;;
6850;SDS011;3464;42.728;23.296;2023-06-26T10:49:34;16.20;;;6.40;;
6850;SDS011;3464;42.728;23.296;2023-06-26T10:52:02;16.37;;;6.40;;
6850;SDS011;3464;42.728;23.296;2023-06-26T10:54:29;12.80;;;5.90;;
6850;SDS011;3464;42.728;23.296;2023-06-26T10:56:56;14.27;;;6.87;;
6850;SDS011;3464;42.728;23.296;2023-06-26T10:59:25;13.70;;;6.43;;
6850;SDS011;3464;42.728;23.296;2023-06-26T11:02:03;12.90;;;5.90;;
6850;SDS011;3464;42.728;23.296;2023-06-26T11:04:37;13.07;;;5.97;;
6850;SDS011;3464;42.728;23.296;2023-06-26T11:09:53;13.33;;;6.60;;
6850;SDS011;3464;42.728;23.296;2023-06-26T11:15:03;12.53;;;6.30;;
6850;SDS011;3464;42.728;23.296;2023-06-26T11:17:29;15.07;;;6.60;;
6850;SDS011;3464;42.728;23.296;2023-06-26T11:19:56;13.97;;;6.30;;
6850;SDS011;3464;42.728;23.296;2023-06-26T11:22:22;19.37;;;6.23;;
6850;SDS011;3464;42.728;23.296;2023-06-26T11:24:49;19.13;;;5.80;;
6850;SDS011;3464;42.728;23.296;2023-06-26T11:27:16;13.07;;;5.30;;
6850;SDS011;3464;42.728;23.296;2023-06-26T11:29:47;13.10;;;6.10;;
6850;SDS011;3464;42.728;23.296;2023-06-26T11:32:09;12.30;;;5.80;;
6850;SDS011;3464;42.728;23.296;2023-06-26T11:34:37;12.53;;;5.80;;
6850;SDS011;3464;42.728;23.296;2023-06-26T11:37:03;13.70;;;6.17;;
6850;SDS011;3464;42.728;23.296;2023-06-26T11:39:30;13.40;;;5.60;;
6850;SDS011;3464;42.728;23.296;2023-06-26T11:41:58;12.03;;;5.70;;
6850;SDS011;3464;42.728;23.296;2023-06-26T11:44:24;15.20;;;6.67;;
6850;SDS011;3464;42.728;23.296;2023-06-26T11:46:51;15.70;;;6.77;;
6850;SDS011;3464;42.728;23.296;2023-06-26T11:49:18;15.40;;;7.57;;
6850;SDS011;3464;42.728;23.296;2023-06-26T11:51:45;17.27;;;7.30;;
6850;SDS011;3464;42.728;23.296;2023-06-26T11:54:14;14.00;;;7.57;;
6850;SDS011;3464;42.728;23.296;2023-06-26T11:56:40;18.07;;;7.90;;
6850;SDS011;3464;42.728;23.296;2023-06-26T11:59:07;18.17;;;7.30;;
6850;SDS011;3464;42.728;23.296;2023-06-26T12:01:35;13.80;;;6.90;;
6850;SDS011;3464;42.728;23.296;2023-06-26T12:04:11;15.13;;;7.40;;
6850;SDS011;3464;42.728;23.296;2023-06-26T12:06:38;17.00;;;7.40;;
6850;SDS011;3464;42.728;23.296;2023-06-26T12:09:05;14.03;;;7.07;;
6850;SDS011;3464;42.728;23.296;2023-06-26T12:11:32;13.80;;;7.20;;
6850;SDS011;3464;42.728;23.296;2023-06-26T12:13:58;18.17;;;7.10;;
6850;SDS011;3464;42.728;23.296;2023-06-26T12:16:25;14.03;;;6.60;;
6850;SDS011;3464;42.728;23.296;2023-06-26T12:18:51;15.50;;;7.37;;
6850;SDS011;3464;42.728;23.296;2023-06-26T12:23:57;21.37;;;6.87;;
6850;SDS011;3464;42.728;23.296;2023-06-26T12:26:18;16.07;;;7.10;;
6850;SDS011;3464;42.728;23.296;2023-06-26T12:28:45;18.50;;;7.70;;
6850;SDS011;3464;42.728;23.296;2023-06-26T12:31:12;15.47;;;7.17;;
6850;SDS011;3464;42.728;23.296;2023-06-26T12:33:38;14.30;;;7.17;;
6850;SDS011;3464;42.728;23.296;2023-06-26T12:36:10;15.33;;;7.00;;
6850;SDS011;3464;42.728;23.296;2023-06-26T12:38:33;15.70;;;6.47;;
6850;SDS011;3464;42.728;23.296;2023-06-26T12:41:00;17.80;;;7.20;;
6850;SDS011;3464;42.728;23.296;2023-06-26T12:43:26;14.73;;;7.30;;
6850;SDS011;3464;42.728;23.296;2023-06-26T12:45:54;17.47;;;7.80;;
6850;SDS011;3464;42.728;23.296;2023-06-26T12:48:20;15.70;;;6.83;;
6850;SDS011;3464;42.728;23.296;2023-06-26T12:50:47;14.73;;;7.37;;
6850;SDS011;3464;42.728;23.296;2023-06-26T12:53:15;16.80;;;7.43;;
6850;SDS011;3464;42.728;23.296;2023-06-26T12:55:43;16.90;;;7.07;;
6850;SDS011;3464;42.728;23.296;2023-06-26T12:58:10;14.73;;;6.70;;
6850;SDS011;3464;42.728;23.296;2023-06-26T13:00:36;14.80;;;7.20;;
6850;SDS011;3464;42.728;23.296;2023-06-26T13:03:03;16.07;;;6.87;;
6850;SDS011;3464;42.728;23.296;2023-06-26T13:05:29;16.27;;;6.80;;
6850;SDS011;3464;42.728;23.296;2023-06-26T13:07:57;15.40;;;7.03;;
6850;SDS011;3464;42.728;23.296;2023-06-26T13:10:24;17.87;;;6.80;;
6850;SDS011;3464;42.728;23.296;2023-06-26T13:12:51;13.80;;;6.57;;
6850;SDS011;3464;42.728;23.296;2023-06-26T13:15:18;14.73;;;5.90;;
6850;SDS011;3464;42.728;23.296;2023-06-26T13:17:45;16.83;;;6.50;;
6850;SDS011;3464;42.728;23.296;2023-06-26T13:20:11;13.13;;;6.40;;
6850;SDS011;3464;42.728;23.296;2023-06-26T13:22:38;18.97;;;6.00;;
6850;SDS011;3464;42.728;23.296;2023-06-26T13:25:05;20.80;;;6.80;;
6850;SDS011;3464;42.728;23.296;2023-06-26T13:27:32;14.63;;;6.63;;
6850;SDS011;3464;42.728;23.296;2023-06-26T13:29:58;15.07;;;7.00;;
6850;SDS011;3464;42.728;23.296;2023-06-26T13:32:25;13.40;;;6.47;;
6850;SDS011;3464;42.728;23.296;2023-06-26T13:34:51;16.17;;;6.60;;
6850;SDS011;3464;42.728;23.296;2023-06-26T13:37:18;13.17;;;6.90;;
6850;SDS011;3464;42.728;23.296;2023-06-26T13:39:44;13.60;;;6.50;;
6850;SDS011;3464;42.728;23.296;2023-06-26T13:42:11;15.40;;;6.87;;
6850;SDS011;3464;42.728;23.296;2023-06-26T13:44:38;14.97;;;7.00;;
6850;SDS011;3464;42.728;23.296;2023-06-26T13:47:04;15.63;;;6.70;;
6850;SDS011;3464;42.728;23.296;2023-06-26T13:49:31;16.37;;;7.00;;
6850;SDS011;3464;42.728;23.296;2023-06-26T13:51:58;15.60;;;6.63;;
6850;SDS011;3464;42.728;23.296;2023-06-26T13:54:24;17.63;;;6.87;;
6850;SDS011;3464;42.728;23.296;2023-06-26T13:56:51;16.00;;;7.30;;
6850;SDS011;3464;42.728;23.296;2023-06-26T13:59:17;13.47;;;6.70;;
6850;SDS011;3464;42.728;23.296;2023-06-26T14:01:45;14.43;;;6.77;;
6850;SDS011;3464;42.728;23.296;2023-06-26T14:04:13;13.20;;;5.80;;
6850;SDS011;3464;42.728;23.296;2023-06-26T14:06:41;17.93;;;6.40;;
6850;SDS011;3464;42.728;23.296;2023-06-26T14:09:08;13.17;;;5.90;;
6850;SDS011;3464;42.728;23.296;2023-06-26T14:11:35;18.73;;;5.80;;
6850;SDS011;3464;42.728;23.296;2023-06-26T14:14:01;13.50;;;6.30;;
6850;SDS011;3464;42.728;23.296;2023-06-26T14:16:28;18.73;;;6.30;;
6850;SDS011;3464;42.728;23.296;2023-06-26T14:18:55;21.63;;;8.70;;
6850;SDS011;3464;42.728;23.296;2023-06-26T14:21:21;15.87;;;6.60;;
6850;SDS011;3464;42.728;23.296;2023-06-26T14:23:48;14.23;;;5.93;;
6850;SDS011;3464;42.728;23.296;2023-06-26T14:26:14;14.47;;;7.63;;
6850;SDS011;3464;42.728;23.296;2023-06-26T14:28:41;20.37;;;8.47;;
6850;SDS011;3464;42.728;23.296;2023-06-26T14:31:07;14.17;;;7.10;;
6850;SDS011;3464;42.728;23.296;2023-06-26T14:33:34;15.53;;;7.63;;
6850;SDS011;3464;42.728;23.296;2023-06-26T14:36:01;17.70;;;7.40;;
6850;SDS011;3464;42.728;23.296;2023-06-26T14:38:29;17.20;;;6.53;;
6850;SDS011;3464;42.728;23.296;2023-06-26T14:40:55;15.70;;;7.53;;
6850;SDS011;3464;42.728;23.296;2023-06-26T14:43:22;20.67;;;8.23;;
6850;SDS011;3464;42.728;23.296;2023-06-26T14:45:49;15.77;;;7.47;;
6850;SDS011;3464;42.728;23.296;2023-06-26T14:48:15;18.87;;;8.87;;
6850;SDS011;3464;42.728;23.296;2023-06-26T14:50:42;17.47;;;8.40;;
6850;SDS011;3464;42.728;23.296;2023-06-26T14:53:08;15.30;;;6.47;;
6850;SDS011;3464;42.728;23.296;2023-06-26T14:55:35;16.27;;;7.17;;
6850;SDS011;3464;42.728;23.296;2023-06-26T14:58:02;16.73;;;6.17;;